Time;durP1;ratioP1;P1;durP2;ratioP2;P2;SDS_P1;SDS_P2;PMS_P1;PMS_P2;Temp;Humidity;BMP_temperature;BMP_pressure;BME280_temperature;BME280_humidity;BME280_pressure;Samples;Min_cycle;Max_cycle;Signal;HPM_P1;HPM_P2
2021/12/02 00:00:03;;;;;;;2.22;0.50;;;4.40;95.10;;;;;;4810485;29;20189;-74
2021/12/02 00:02:39;;;;;;;2.80;0.82;;;4.30;95.10;;;;;;4828607;29;20395;-74
2021/12/02 00:05:06;;;;;;;3.47;0.43;;;4.30;95.10;;;;;;4862876;29;20078;-74
2021/12/02 00:07:34;;;;;;;1.52;0.40;;;4.30;95.20;;;;;;4837622;29;20054;-74
2021/12/02 00:10:01;;;;;;;2.08;0.40;;;4.20;95.20;;;;;;4826418;29;20077;-74
2021/12/02 00:12:28;;;;;;;4.10;0.50;;;4.30;95.30;;;;;;4847239;29;20113;-74
2021/12/02 00:14:55;;;;;;;1.58;0.30;;;4.30;95.30;;;;;;4806716;29;20049;-74
2021/12/02 00:17:28;;;;;;;5.38;0.40;;;4.30;95.30;;;;;;4841373;29;20042;-74
2021/12/02 00:23:00;;;;;;;2.08;0.30;;;4.50;95.40;;;;;;4839637;29;20046;-74
2021/12/02 00:25:27;;;;;;;2.58;0.47;;;4.60;95.30;;;;;;4846875;29;20419;-74
2021/12/02 00:27:56;;;;;;;5.47;0.75;;;4.60;95.10;;;;;;4860396;29;20056;-74
2021/12/02 00:30:25;;;;;;;1.70;0.40;;;4.60;95.00;;;;;;4842541;29;20042;-74
2021/12/02 00:32:55;;;;;;;1.25;0.38;;;4.50;95.00;;;;;;4822851;29;20050;-74
2021/12/02 00:35:24;;;;;;;3.55;0.50;;;4.50;95.00;;;;;;4847457;29;20132;-74
2021/12/02 00:37:53;;;;;;;3.53;0.40;;;4.50;95.00;;;;;;4826416;29;20053;-74
2021/12/02 00:40:20;;;;;;;1.75;0.20;;;4.50;95.00;;;;;;4808377;29;20053;-74
2021/12/02 00:42:48;;;;;;;2.22;0.40;;;4.40;95.10;;;;;;4826201;29;20471;-74
2021/12/02 00:45:15;;;;;;;2.25;0.35;;;4.50;95.10;;;;;;4841870;29;20072;-74
2021/12/02 00:47:43;;;;;;;1.70;0.40;;;4.40;95.10;;;;;;4823030;29;20172;-74
2021/12/02 00:50:10;;;;;;;0.82;0.20;;;4.40;95.10;;;;;;4811828;29;20052;-74
2021/12/02 00:52:39;;;;;;;2.25;0.28;;;4.40;95.20;;;;;;4841127;29;20052;-81
2021/12/02 00:55:08;;;;;;;2.58;0.30;;;4.50;95.20;;;;;;4828581;29;20573;-81
2021/12/02 00:57:39;;;;;;;4.07;0.50;;;4.60;95.20;;;;;;4830071;29;20049;-82
2021/12/02 01:00:07;;;;;;;2.30;0.50;;;4.70;95.10;;;;;;4848137;29;20096;-83
2021/12/02 01:02:34;;;;;;;2.47;0.40;;;4.50;94.40;;;;;;4827183;29;20046;-82
2021/12/02 01:05:02;;;;;;;1.77;0.40;;;4.40;94.90;;;;;;4844169;29;20077;-83
2021/12/02 01:07:29;;;;;;;2.22;0.45;;;4.30;95.20;;;;;;4830084;29;20076;-82
2021/12/02 01:09:57;;;;;;;2.20;0.57;;;4.30;95.30;;;;;;4850973;29;20065;-84
2021/12/02 01:12:25;;;;;;;2.15;0.40;;;4.20;95.30;;;;;;4829788;29;20045;-83
2021/12/02 01:14:52;;;;;;;1.83;0.30;;;4.20;95.30;;;;;;4835664;29;20455;-82
2021/12/02 01:17:19;;;;;;;0.93;0.57;;;4.20;95.30;;;;;;4812426;29;20050;-82
2021/12/02 01:19:46;;;;;;;4.03;0.35;;;4.10;95.30;;;;;;4826888;29;20048;-82
2021/12/02 01:22:16;;;;;;;1.45;0.40;;;4.10;95.40;;;;;;4844109;29;20144;-83
2021/12/02 01:24:48;;;;;;;1.20;0.20;;;4.10;95.50;;;;;;4812091;29;20152;-83
2021/12/02 01:27:16;;;;;;;0.55;0.10;;;4.10;95.50;;;;;;4826572;29;20053;-83
2021/12/02 01:29:45;;;;;;;1.10;0.10;;;4.10;95.50;;;;;;4826970;29;20065;-83
2021/12/02 01:32:12;;;;;;;1.05;0.20;;;4.10;95.50;;;;;;4842190;29;20130;-83
2021/12/02 01:34:43;;;;;;;1.25;0.10;;;4.00;95.50;;;;;;4826552;29;20073;-83
2021/12/02 01:37:11;;;;;;;0.50;0.10;;;4.00;95.50;;;;;;4842216;29;20163;-83
2021/12/02 01:39:38;;;;;;;2.38;0.10;;;4.00;95.50;;;;;;4842831;29;20517;-83
2021/12/02 01:42:10;;;;;;;0.70;0.20;;;4.00;95.50;;;;;;4808048;29;20052;-83
2021/12/02 01:44:41;;;;;;;2.65;0.30;;;4.00;95.50;;;;;;4842042;29;20108;-83
2021/12/02 01:47:15;;;;;;;0.88;0.40;;;4.10;95.60;;;;;;4842120;29;20506;-82
2021/12/02 01:49:43;;;;;;;0.77;0.25;;;4.10;95.60;;;;;;4824280;29;20065;-83
2021/12/02 01:52:12;;;;;;;1.25;0.10;;;4.10;95.60;;;;;;4838483;29;20054;-82
2021/12/02 01:54:47;;;;;;;1.30;0.20;;;4.10;95.60;;;;;;4840360;29;20050;-82
2021/12/02 01:57:27;;;;;;;1.13;0.10;;;4.20;95.60;;;;;;4841092;29;20069;-83
2021/12/02 02:00:23;;;;;;;0.73;0.20;;;4.20;95.60;;;;;;4845094;29;20050;-83
2021/12/02 02:03:22;;;;;;;0.32;0.10;;;4.30;95.60;;;;;;4846314;29;20546;-83
2021/12/02 02:06:36;;;;;;;1.30;0.13;;;4.30;95.50;;;;;;4842675;29;20053;-79
2021/12/02 02:09:06;;;;;;;0.75;0.20;;;4.30;95.60;;;;;;4844596;29;20050;-80
2021/12/02 02:11:34;;;;;;;1.13;0.20;;;4.30;95.60;;;;;;4834052;29;20678;-81
2021/12/02 02:14:02;;;;;;;1.25;0.30;;;4.30;95.50;;;;;;4820714;29;20084;-80
2021/12/02 02:16:29;;;;;;;0.85;0.20;;;4.30;95.50;;;;;;4844257;29;20499;-80
2021/12/02 02:18:56;;;;;;;1.55;0.20;;;4.20;95.40;;;;;;4843471;29;20053;-80
2021/12/02 02:21:24;;;;;;;0.40;0.20;;;4.20;95.40;;;;;;4821446;29;20075;-80
2021/12/02 02:23:56;;;;;;;0.57;0.10;;;4.20;95.50;;;;;;4859288;29;20050;-80
2021/12/02 02:26:33;;;;;;;0.82;0.20;;;4.10;95.50;;;;;;4812331;29;20050;-80
2021/12/02 02:29:01;;;;;;;1.58;0.10;;;4.10;95.60;;;;;;4846118;29;20053;-80
2021/12/02 02:31:29;;;;;;;0.82;0.20;;;4.00;95.60;;;;;;4813760;29;20495;-80
2021/12/02 02:33:58;;;;;;;1.73;0.30;;;4.00;95.60;;;;;;4830418;29;20053;-80
2021/12/02 02:36:37;;;;;;;3.53;0.20;;;3.90;95.60;;;;;;4828683;29;20804;-81
2021/12/02 02:39:05;;;;;;;0.68;0.30;;;3.80;95.60;;;;;;4846394;29;20050;-80
2021/12/02 02:41:37;;;;;;;1.50;0.45;;;3.80;95.70;;;;;;4827352;29;20050;-79
2021/12/02 02:44:05;;;;;;;1.08;0.30;;;3.80;95.80;;;;;;4836024;29;20069;-80
2021/12/02 02:46:44;;;;;;;4.57;0.38;;;3.80;95.80;;;;;;4845952;29;20056;-80
2021/12/02 02:49:12;;;;;;;1.35;0.55;;;3.90;95.80;;;;;;4834758;29;20080;-80
2021/12/02 02:51:41;;;;;;;2.53;0.57;;;3.90;95.80;;;;;;4846081;29;20125;-81
2021/12/02 02:54:11;;;;;;;2.13;0.40;;;3.90;95.80;;;;;;4831719;29;20046;-80
2021/12/02 02:56:53;;;;;;;3.15;0.28;;;4.00;95.80;;;;;;4832884;29;20175;-81
2021/12/02 03:04:56;;;;;;;1.33;0.57;;;3.90;95.70;;;;;;4833124;29;20045;-81
2021/12/02 03:10:43;;;;;;;1.10;0.47;;;4.00;95.80;;;;;;4849354;29;20058;-81
2021/12/02 03:12:56;;;;;;;1.55;0.13;;;4.00;95.80;;;;;;4851819;29;20448;-81
2021/12/02 03:18:11;;;;;;;2.22;0.30;;;4.00;95.70;;;;;;4835054;29;20041;-80
2021/12/02 03:20:39;;;;;;;0.38;0.20;;;3.90;95.70;;;;;;4845353;29;20670;-81
2021/12/02 03:23:06;;;;;;;1.00;0.20;;;3.90;95.80;;;;;;4830227;29;20132;-80
2021/12/02 03:25:33;;;;;;;1.10;0.28;;;4.00;95.80;;;;;;4830525;29;20085;-81
2021/12/02 03:28:01;;;;;;;0.52;0.20;;;4.00;95.80;;;;;;4869813;29;20064;-81
2021/12/02 03:30:31;;;;;;;0.65;0.20;;;4.00;95.80;;;;;;4834985;29;20046;-81
2021/12/02 03:32:58;;;;;;;0.50;0.20;;;4.00;95.80;;;;;;4817954;29;21325;-81
2021/12/02 03:35:25;;;;;;;1.55;0.30;;;3.90;95.80;;;;;;4831869;29;20034;-81
2021/12/02 03:37:52;;;;;;;2.30;0.50;;;3.90;95.80;;;;;;4848701;29;20045;-81
2021/12/02 03:40:22;;;;;;;0.63;0.17;;;3.80;95.70;;;;;;4833352;29;20076;-81
2021/12/02 03:42:51;;;;;;;0.52;0.10;;;3.80;95.80;;;;;;4831288;29;20114;-81
2021/12/02 03:45:27;;;;;;;2.65;0.40;;;3.80;95.90;;;;;;4833404;29;20065;-81
2021/12/02 03:47:59;;;;;;;3.30;0.20;;;3.80;95.90;;;;;;4833750;29;20054;-81
2021/12/02 03:50:26;;;;;;;1.58;0.20;;;3.80;95.90;;;;;;4829171;29;20049;-80
2021/12/02 03:52:53;;;;;;;1.25;0.20;;;3.90;95.90;;;;;;4831097;29;20452;-81
2021/12/02 03:55:20;;;;;;;2.55;0.20;;;3.90;95.80;;;;;;4818086;29;20096;-82
2021/12/02 03:57:47;;;;;;;0.70;0.10;;;3.90;95.80;;;;;;4831019;29;20085;-81
2021/12/02 04:00:15;;;;;;;0.40;0.10;;;3.80;95.70;;;;;;4829246;29;20082;-80
2021/12/02 04:02:42;;;;;;;0.90;0.10;;;3.80;95.80;;;;;;4844348;29;20061;-80
2021/12/02 04:05:09;;;;;;;1.63;0.10;;;3.80;95.80;;;;;;4827021;29;20781;-80
2021/12/02 04:07:36;;;;;;;0.70;0.10;;;3.80;95.80;;;;;;4843534;29;20138;-81
2021/12/02 04:10:05;;;;;;;1.05;0.20;;;3.70;95.80;;;;;;4815426;29;20058;-80
2021/12/02 04:12:49;;;;;;;0.10;0.10;;;3.70;95.80;;;;;;4845571;29;20095;-80
2021/12/02 04:15:40;;;;;;;2.63;0.52;;;3.70;95.80;;;;;;4858724;29;20095;-80
2021/12/02 04:18:05;;;;;;;0.43;0.10;;;3.70;95.80;;;;;;4848856;29;20701;-80
2021/12/02 04:20:32;;;;;;;0.30;0.00;;;3.60;95.90;;;;;;4869124;29;20111;-80
2021/12/02 04:23:00;;;;;;;0.52;0.10;;;3.70;95.90;;;;;;4833172;29;20054;-80
2021/12/02 04:25:27;;;;;;;2.03;0.10;;;3.60;95.90;;;;;;4831464;29;20107;-80
2021/12/02 04:28:03;;;;;;;0.30;0.10;;;3.70;95.90;;;;;;4837991;29;21310;-80
2021/12/02 04:30:31;;;;;;;2.05;0.22;;;3.60;95.80;;;;;;4847463;29;20102;-80
2021/12/02 04:32:58;;;;;;;0.47;0.00;;;3.60;95.80;;;;;;4844433;29;20061;-80
2021/12/02 04:35:25;;;;;;;0.75;0.00;;;3.60;95.90;;;;;;4829078;29;20141;-81
2021/12/02 04:37:52;;;;;;;0.50;0.10;;;3.60;95.90;;;;;;4844582;29;20046;-80
2021/12/02 04:40:24;;;;;;;0.43;0.10;;;3.60;95.90;;;;;;4846293;29;20120;-80
2021/12/02 04:42:54;;;;;;;1.35;0.13;;;3.60;95.90;;;;;;4831619;29;20081;-80
2021/12/02 04:45:21;;;;;;;2.20;0.10;;;3.60;95.90;;;;;;4831428;29;20164;-80
2021/12/02 04:47:49;;;;;;;0.30;0.00;;;3.60;95.90;;;;;;4847821;29;20060;-79
2021/12/02 04:50:16;;;;;;;0.57;0.00;;;3.60;96.00;;;;;;4847522;29;20061;-80
2021/12/02 04:52:43;;;;;;;0.93;0.25;;;3.60;96.00;;;;;;4829076;29;20046;-80
2021/12/02 04:55:10;;;;;;;0.03;0.00;;;3.60;96.00;;;;;;4830084;29;20130;-80
2021/12/02 04:57:37;;;;;;;0.10;0.00;;;3.70;96.00;;;;;;4851377;29;20049;-80
2021/12/02 05:00:05;;;;;;;0.90;0.10;;;3.70;95.90;;;;;;4846907;29;20069;-80
2021/12/02 05:02:33;;;;;;;0.55;0.10;;;3.70;95.90;;;;;;4831417;29;20129;-80
2021/12/02 05:05:00;;;;;;;1.75;0.10;;;3.60;95.90;;;;;;4830382;29;20061;-81
2021/12/02 05:07:27;;;;;;;1.65;0.10;;;3.60;95.90;;;;;;4843325;29;20075;-80
2021/12/02 05:09:54;;;;;;;0.35;0.00;;;3.60;95.90;;;;;;4828722;29;20153;-80
2021/12/02 05:12:25;;;;;;;0.65;0.10;;;3.60;95.90;;;;;;4828380;29;20109;-80
2021/12/02 05:15:20;;;;;;;;;;;;;;;;;;;;;
2021/12/02 05:18:32;;;;;;;0.28;0.05;;;3.60;96.00;;;;;;4842497;29;20920;-80
2021/12/02 05:21:00;;;;;;;0.45;0.10;;;3.50;96.00;;;;;;4844190;29;20443;-80
2021/12/02 05:23:27;;;;;;;0.70;0.10;;;3.50;96.00;;;;;;4831423;29;20042;-80
2021/12/02 05:25:54;;;;;;;0.88;0.20;;;3.60;96.00;;;;;;4844347;29;20426;-80
2021/12/02 05:28:21;;;;;;;3.72;0.50;;;3.70;96.00;;;;;;4832379;29;20045;-80
2021/12/02 05:30:48;;;;;;;0.30;0.20;;;3.70;96.00;;;;;;4829676;29;20057;-81
2021/12/02 05:33:16;;;;;;;1.45;0.20;;;3.70;95.90;;;;;;4830732;29;20455;-81
2021/12/02 05:35:44;;;;;;;1.10;0.17;;;3.70;95.80;;;;;;4831215;29;20113;-81
2021/12/02 05:38:11;;;;;;;0.60;0.17;;;3.60;95.80;;;;;;4842754;29;20041;-81
2021/12/02 05:40:39;;;;;;;1.90;0.20;;;3.60;95.80;;;;;;4832261;29;20077;-81
2021/12/02 05:43:06;;;;;;;0.68;0.30;;;3.60;95.90;;;;;;4860801;29;20060;-81
2021/12/02 05:45:34;;;;;;;0.63;0.15;;;3.60;95.80;;;;;;4845637;29;20719;-81
2021/12/02 05:48:01;;;;;;;0.77;0.17;;;3.50;95.80;;;;;;4823004;29;20057;-81
2021/12/02 05:50:28;;;;;;;0.77;0.10;;;3.50;95.80;;;;;;4832947;29;20110;-82
2021/12/02 05:52:55;;;;;;;0.38;0.10;;;3.40;95.80;;;;;;4830544;29;20584;-82
2021/12/02 05:55:22;;;;;;;1.15;0.08;;;3.40;95.90;;;;;;4843550;29;20137;-82
2021/12/02 05:57:49;;;;;;;1.17;0.10;;;3.30;95.90;;;;;;4828201;29;20057;-82
2021/12/02 06:00:17;;;;;;;1.02;0.10;;;3.30;95.90;;;;;;4827126;29;20078;-81
2021/12/02 06:02:44;;;;;;;0.40;0.10;;;3.20;95.90;;;;;;4820620;29;20056;-80
2021/12/02 06:05:21;;;;;;;0.00;0.00;;;3.10;95.90;;;;;;4860173;29;20058;-81
2021/12/02 06:07:50;;;;;;;1.13;0.10;;;3.10;96.00;;;;;;4815486;29;20157;-81
2021/12/02 06:10:18;;;;;;;0.00;0.00;;;3.10;96.10;;;;;;4829737;29;20510;-80
2021/12/02 06:12:47;;;;;;;2.75;0.20;;;3.10;96.10;;;;;;4846940;29;20049;-79
2021/12/02 06:15:14;;;;;;;1.98;0.10;;;3.10;96.10;;;;;;4851983;29;20102;-83
2021/12/02 06:17:42;;;;;;;1.30;0.00;;;3.10;96.00;;;;;;4812422;29;20053;-79
2021/12/02 06:20:12;;;;;;;0.40;0.10;;;3.10;96.00;;;;;;4833103;29;20061;-83
2021/12/02 06:22:39;;;;;;;0.45;0.10;;;3.10;96.00;;;;;;4821689;29;20147;-82
2021/12/02 06:27:44;;;;;;;0.10;0.10;;;3.10;96.10;;;;;;4847209;29;20114;-82
2021/12/02 06:30:14;;;;;;;0.98;0.13;;;3.10;96.20;;;;;;4842718;29;20091;-81
2021/12/02 06:32:41;;;;;;;2.47;0.10;;;3.10;96.10;;;;;;4829169;29;20078;-82
2021/12/02 06:35:09;;;;;;;1.85;0.13;;;3.10;96.40;;;;;;4848022;29;20077;-81
2021/12/02 06:37:37;;;;;;;1.05;0.20;;;3.10;96.20;;;;;;4869899;29;20761;-81
2021/12/02 06:40:05;;;;;;;0.65;0.00;;;3.20;96.20;;;;;;4826465;29;20061;-81
2021/12/02 06:42:33;;;;;;;0.30;0.00;;;3.20;96.20;;;;;;4832429;29;20061;-83
2021/12/02 06:45:00;;;;;;;0.40;0.10;;;3.30;96.10;;;;;;4824621;29;20137;-82
2021/12/02 06:47:32;;;;;;;0.28;0.10;;;3.30;96.10;;;;;;4848747;29;20050;-84
2021/12/02 06:50:01;;;;;;;0.65;0.20;;;3.30;96.10;;;;;;4850930;29;20053;-83
2021/12/02 06:52:30;;;;;;;0.30;0.20;;;3.30;96.10;;;;;;4834888;29;20404;-82
2021/12/02 06:54:58;;;;;;;0.77;0.20;;;3.30;96.00;;;;;;4847997;29;20054;-82
2021/12/02 06:57:25;;;;;;;1.10;0.32;;;3.40;96.00;;;;;;4832480;29;20490;-82
2021/12/02 06:59:52;;;;;;;1.65;0.30;;;3.40;96.00;;;;;;4817992;29;20064;-82
2021/12/02 07:02:22;;;;;;;1.00;0.40;;;3.30;95.90;;;;;;4853784;29;20193;-82
2021/12/02 07:04:50;;;;;;;1.52;0.60;;;3.30;95.90;;;;;;4829802;29;20061;-82
2021/12/02 07:07:17;;;;;;;0.98;0.40;;;3.20;95.90;;;;;;4830082;29;20050;-82
2021/12/02 07:09:44;;;;;;;1.05;0.30;;;3.10;95.90;;;;;;4814860;29;20124;-81
2021/12/02 07:12:12;;;;;;;0.60;0.30;;;3.00;95.90;;;;;;4847669;29;20110;-81
2021/12/02 07:14:42;;;;;;;0.73;0.30;;;3.00;95.90;;;;;;4815962;29;20057;-79
2021/12/02 07:17:09;;;;;;;1.10;0.40;;;2.90;96.00;;;;;;4847167;29;20130;-79
2021/12/02 07:19:39;;;;;;;1.45;0.30;;;2.90;96.00;;;;;;4818916;29;20110;-82
2021/12/02 07:22:06;;;;;;;2.20;0.52;;;2.90;96.10;;;;;;4818029;29;20058;-82
2021/12/02 07:24:33;;;;;;;2.15;0.50;;;2.80;96.10;;;;;;4833903;29;20046;-82
2021/12/02 07:27:06;;;;;;;0.97;0.40;;;2.80;96.10;;;;;;4829898;29;20057;-81
2021/12/02 07:29:33;;;;;;;1.27;0.55;;;2.80;96.20;;;;;;4847956;29;20125;-83
2021/12/02 07:32:02;;;;;;;1.35;0.63;;;2.80;96.20;;;;;;4842552;29;20125;-80
2021/12/02 07:34:39;;;;;;;2.50;0.80;;;2.90;96.10;;;;;;4833085;29;20099;-79
2021/12/02 07:37:06;;;;;;;1.60;0.68;;;2.80;96.10;;;;;;4846182;29;20049;-83
2021/12/02 07:39:34;;;;;;;1.02;0.40;;;2.80;96.10;;;;;;4816931;29;20572;-83
2021/12/02 07:42:24;;;;;;;6.13;0.97;;;2.80;96.20;;;;;;4836666;29;20461;-81
2021/12/02 07:44:51;;;;;;;1.77;0.80;;;2.80;96.20;;;;;;4870418;29;20114;-82
2021/12/02 07:47:19;;;;;;;1.30;0.50;;;2.80;96.20;;;;;;4822656;29;20046;-82
2021/12/02 07:49:49;;;;;;;1.63;0.30;;;2.90;96.20;;;;;;4831359;29;20049;-81
2021/12/02 07:52:20;;;;;;;1.00;0.50;;;2.90;96.20;;;;;;4847915;29;20046;-81
2021/12/02 07:54:51;;;;;;;1.23;0.47;;;2.90;96.10;;;;;;4833100;29;20681;-81
2021/12/02 07:57:21;;;;;;;0.80;0.45;;;2.90;96.20;;;;;;4832713;29;20045;-81
2021/12/02 07:59:50;;;;;;;1.35;0.40;;;3.00;96.20;;;;;;4864589;29;20049;-79
2021/12/02 08:02:18;;;;;;;1.48;0.40;;;3.00;96.20;;;;;;4827680;29;20146;-79
2021/12/02 08:04:45;;;;;;;2.15;0.68;;;3.10;96.20;;;;;;4848819;29;20053;-79
2021/12/02 08:07:12;;;;;;;1.70;0.73;;;3.10;96.10;;;;;;4869296;29;20058;-78
2021/12/02 08:09:39;;;;;;;1.67;0.43;;;3.20;96.10;;;;;;4834061;29;20061;-77
2021/12/02 08:12:07;;;;;;;2.95;0.70;;;3.20;96.10;;;;;;4845419;29;20072;-79
2021/12/02 08:14:35;;;;;;;2.25;0.70;;;3.20;96.10;;;;;;4832673;29;20046;-79
2021/12/02 08:17:02;;;;;;;2.50;0.60;;;3.30;96.10;;;;;;4817291;29;20060;-78
2021/12/02 08:19:29;;;;;;;1.70;0.60;;;3.30;96.10;;;;;;4847599;29;20070;-78
2021/12/02 08:21:57;;;;;;;2.25;1.05;;;3.30;96.00;;;;;;4844893;29;20105;-79
2021/12/02 08:24:25;;;;;;;1.10;0.40;;;3.40;96.00;;;;;;4834149;29;20049;-80
2021/12/02 08:26:53;;;;;;;1.52;0.50;;;3.40;96.10;;;;;;4812112;29;20054;-81
2021/12/02 08:29:22;;;;;;;1.00;0.30;;;3.50;96.10;;;;;;4847139;29;20092;-80
2021/12/02 08:31:49;;;;;;;4.95;0.68;;;3.60;96.10;;;;;;4829777;29;20046;-81
2021/12/02 08:34:17;;;;;;;1.98;0.68;;;3.60;96.00;;;;;;4847986;29;20048;-80
2021/12/02 08:36:54;;;;;;;2.15;0.45;;;3.70;96.30;;;;;;4862271;29;20057;-80
2021/12/02 08:39:26;;;;;;;1.48;0.60;;;3.70;96.00;;;;;;4830954;29;20050;-80
2021/12/02 08:41:54;;;;;;;1.58;0.52;;;3.70;96.00;;;;;;4829857;29;20065;-81
2021/12/02 08:44:25;;;;;;;5.38;0.82;;;3.80;95.90;;;;;;4816721;29;20041;-81
2021/12/02 08:46:53;;;;;;;2.25;0.63;;;3.70;95.80;;;;;;4862117;29;20086;-81
2021/12/02 08:49:22;;;;;;;2.38;0.60;;;3.70;95.80;;;;;;4829486;29;20524;-81
2021/12/02 08:51:51;;;;;;;2.97;0.70;;;3.70;95.90;;;;;;4867715;29;20062;-81
2021/12/02 08:54:21;;;;;;;1.50;0.63;;;3.70;95.80;;;;;;4837508;29;20053;-82
2021/12/02 08:56:49;;;;;;;2.78;0.65;;;3.70;95.80;;;;;;4842373;29;20072;-81
2021/12/02 08:59:17;;;;;;;1.17;0.60;;;3.60;95.80;;;;;;4814002;29;20069;-80
2021/12/02 09:01:44;;;;;;;2.28;0.98;;;3.60;95.80;;;;;;4856798;29;20062;-79
2021/12/02 09:04:11;;;;;;;4.32;0.85;;;3.60;95.90;;;;;;4811531;29;20120;-79
2021/12/02 09:06:39;;;;;;;2.22;0.70;;;3.60;95.90;;;;;;4815151;29;21209;-80
2021/12/02 09:09:06;;;;;;;4.50;1.17;;;3.70;96.00;;;;;;4807320;29;20056;-80
2021/12/02 09:11:33;;;;;;;5.63;1.40;;;3.60;95.90;;;;;;4829891;29;20058;-80
2021/12/02 09:14:04;;;;;;;2.83;0.90;;;3.70;95.90;;;;;;4829499;29;20110;-80
2021/12/02 09:16:33;;;;;;;3.00;0.70;;;3.70;96.00;;;;;;4846915;29;20141;-80
2021/12/02 09:19:01;;;;;;;1.67;0.68;;;3.70;95.90;;;;;;4830630;29;20106;-80
2021/12/02 09:21:28;;;;;;;6.57;0.95;;;3.70;95.90;;;;;;4844336;29;20102;-80
2021/12/02 09:23:57;;;;;;;2.33;0.80;;;3.70;95.80;;;;;;4843802;29;20061;-80
2021/12/02 09:26:24;;;;;;;1.80;0.70;;;3.60;95.80;;;;;;4813134;29;20053;-80
2021/12/02 09:28:56;;;;;;;4.53;0.80;;;3.60;95.80;;;;;;4823842;29;20570;-79
2021/12/02 09:31:24;;;;;;;2.88;1.10;;;3.60;95.90;;;;;;4827608;29;20056;-79
2021/12/02 09:33:51;;;;;;;2.15;0.68;;;3.60;95.90;;;;;;4820023;29;20054;-79
2021/12/02 09:36:22;;;;;;;1.75;0.50;;;3.60;96.00;;;;;;4833333;29;20758;-79
2021/12/02 09:38:50;;;;;;;1.88;0.65;;;3.60;96.00;;;;;;4826187;29;20045;-79
2021/12/02 09:41:17;;;;;;;2.25;0.50;;;3.70;96.00;;;;;;4852121;29;20038;-79
2021/12/02 09:43:49;;;;;;;2.22;0.50;;;3.70;96.00;;;;;;4829643;29;20426;-80
2021/12/02 09:46:16;;;;;;;1.77;0.80;;;3.90;96.00;;;;;;4830974;29;20049;-80
2021/12/02 09:48:47;;;;;;;3.20;0.80;;;4.00;96.00;;;;;;4830832;29;20152;-78
2021/12/02 09:51:23;;;;;;;1.80;0.60;;;4.20;95.90;;;;;;4844276;29;20304;-77
2021/12/02 09:54:18;;;;;;;3.35;0.50;;;4.30;95.70;;;;;;4835091;29;20038;-79
2021/12/02 09:56:51;;;;;;;2.47;0.60;;;4.30;95.60;;;;;;4845471;29;20494;-79
2021/12/02 09:59:27;;;;;;;1.75;0.60;;;4.30;95.60;;;;;;4815826;29;20056;-79
2021/12/02 10:02:03;;;;;;;0.90;0.40;;;4.30;95.60;;;;;;4823986;29;20506;-80
2021/12/02 10:04:33;;;;;;;2.22;0.65;;;4.20;95.60;;;;;;4843606;29;20061;-79
2021/12/02 10:07:20;;;;;;;1.15;0.30;;;4.20;95.60;;;;;;4811422;29;20137;-78
2021/12/02 10:10:04;;;;;;;1.13;0.35;;;4.20;95.70;;;;;;4842467;29;20072;-78
2021/12/02 10:12:34;;;;;;;1.08;0.40;;;4.30;95.70;;;;;;4843704;29;20494;-78
2021/12/02 10:15:08;;;;;;;1.05;0.30;;;4.20;95.60;;;;;;4825268;29;20773;-78
2021/12/02 10:17:41;;;;;;;1.05;0.35;;;4.20;95.60;;;;;;4840229;29;20061;-78
2021/12/02 10:23:17;;;;;;;0.70;0.25;;;4.20;95.70;;;;;;4849142;29;20049;-78
2021/12/02 10:25:47;;;;;;;2.22;0.25;;;4.30;95.60;;;;;;4825951;29;21202;-78
2021/12/02 10:28:19;;;;;;;0.63;0.20;;;4.20;95.60;;;;;;4843740;29;20038;-79
2021/12/02 10:30:49;;;;;;;0.82;0.25;;;4.20;95.80;;;;;;4847851;29;20050;-78
2021/12/02 10:33:44;;;;;;;0.80;0.25;;;4.10;95.60;;;;;;4842533;29;20061;-77
2021/12/02 10:36:28;;;;;;;2.17;0.40;;;4.00;95.60;;;;;;4843747;29;20046;-78
2021/12/02 10:38:59;;;;;;;1.13;0.30;;;3.90;95.60;;;;;;4841699;29;20426;-78
2021/12/02 10:41:29;;;;;;;1.50;0.40;;;3.80;95.60;;;;;;4830610;29;20053;-78
2021/12/02 10:44:11;;;;;;;1.83;0.32;;;3.80;95.70;;;;;;4840389;29;20046;-77
2021/12/02 10:46:57;;;;;;;3.75;0.50;;;3.80;95.70;;;;;;4841796;29;20084;-78
2021/12/02 10:49:42;;;;;;;1.77;0.50;;;3.80;95.70;;;;;;4854297;29;20132;-79
2021/12/02 10:52:14;;;;;;;2.50;0.40;;;3.70;95.60;;;;;;4839883;29;20098;-80
2021/12/02 10:54:46;;;;;;;0.88;0.32;;;3.70;95.70;;;;;;4845873;29;20060;-81
2021/12/02 10:57:17;;;;;;;;;;;3.70;95.70;;;;;;4859539;29;20046;-80
2021/12/02 10:59:49;;;;;;;;;;;3.80;95.80;;;;;;4851500;29;19935;-80
2021/12/02 11:02:34;;;;;;;0.55;0.30;;;3.80;95.80;;;;;;4828189;29;20382;-79
2021/12/02 11:05:10;;;;;;;0.70;0.40;;;3.80;95.80;;;;;;4825870;29;20129;-80
2021/12/02 11:07:40;;;;;;;2.00;0.50;;;3.90;95.70;;;;;;4823656;29;20046;-81
2021/12/02 11:10:11;;;;;;;2.35;0.40;;;4.00;95.70;;;;;;4830458;29;20063;-81
2021/12/02 11:12:43;;;;;;;0.95;0.30;;;4.20;95.70;;;;;;4831543;29;20065;-80
2021/12/02 11:15:33;;;;;;;1.80;0.40;;;4.40;95.70;;;;;;4860621;29;20468;-79
2021/12/02 11:18:07;;;;;;;1.20;0.50;;;4.50;95.50;;;;;;4843749;29;20046;-77
2021/12/02 11:20:43;;;;;;;1.52;1.10;;;4.60;95.40;;;;;;4829331;29;20550;-76
2021/12/02 11:23:27;;;;;;;1.27;0.40;;;4.60;95.30;;;;;;4849621;29;20057;-78
2021/12/02 11:26:08;;;;;;;0.85;0.40;;;4.70;95.30;;;;;;4848197;29;20494;-78
2021/12/02 11:28:38;;;;;;;2.30;0.50;;;4.80;95.30;;;;;;4843186;29;20523;-79
2021/12/02 11:31:19;;;;;;;0.70;0.30;;;4.80;95.20;;;;;;4845458;29;20053;-78
2021/12/02 11:33:49;;;;;;;1.27;0.40;;;4.80;95.00;;;;;;4830625;29;20157;-79
2021/12/02 11:36:26;;;;;;;2.72;0.40;;;4.80;95.00;;;;;;4851492;29;20054;-78
2021/12/02 11:38:57;;;;;;;0.93;0.28;;;4.90;94.90;;;;;;4843951;29;20050;-80
2021/12/02 11:41:26;;;;;;;1.08;0.30;;;4.90;95.00;;;;;;4842251;29;20136;-79
2021/12/02 11:43:54;;;;;;;3.50;0.40;;;4.90;95.00;;;;;;4843615;29;20076;-80
2021/12/02 11:46:22;;;;;;;0.65;0.28;;;5.00;94.90;;;;;;4807785;29;20045;-79
2021/12/02 11:48:49;;;;;;;1.55;0.28;;;5.00;95.20;;;;;;4816370;29;20042;-80
2021/12/02 11:51:21;;;;;;;1.00;0.30;;;5.10;95.00;;;;;;4851767;29;20057;-79
2021/12/02 11:53:49;;;;;;;3.03;0.30;;;5.10;94.90;;;;;;4845449;29;20052;-79
2021/12/02 11:56:20;;;;;;;0.65;0.20;;;5.10;94.90;;;;;;4821642;29;20690;-78
2021/12/02 11:58:49;;;;;;;0.60;0.20;;;5.10;94.90;;;;;;4844255;29;20709;-80
2021/12/02 12:01:19;;;;;;;0.75;0.50;;;5.10;94.90;;;;;;4832881;29;20061;-79
2021/12/02 12:04:09;;;;;;;0.65;0.20;;;5.10;94.90;;;;;;4842279;29;20053;-80
2021/12/02 12:06:38;;;;;;;0.50;0.20;;;5.10;95.00;;;;;;4845983;29;20509;-80
2021/12/02 12:09:14;;;;;;;0.95;0.20;;;5.10;95.00;;;;;;4831309;29;20061;-80
2021/12/02 12:11:50;;;;;;;0.55;0.20;;;5.10;94.90;;;;;;4837028;29;20072;-80
2021/12/02 12:14:31;;;;;;;1.83;0.20;;;5.10;94.90;;;;;;4852225;29;20102;-79
2021/12/02 12:17:14;;;;;;;1.00;0.20;;;5.10;94.90;;;;;;4831168;29;20051;-79
2021/12/02 12:19:43;;;;;;;0.95;0.28;;;5.10;94.80;;;;;;4843704;29;20053;-77
2021/12/02 12:22:23;;;;;;;1.00;0.10;;;4.90;94.80;;;;;;4837418;29;20121;-80
2021/12/02 12:24:52;;;;;;;0.28;0.10;;;4.80;94.80;;;;;;4845809;29;20069;-79
2021/12/02 12:27:28;;;;;;;0.40;0.10;;;4.80;94.90;;;;;;4846955;29;20114;-78
2021/12/02 12:30:06;;;;;;;0.28;0.10;;;4.70;94.90;;;;;;4847783;29;20046;-79
2021/12/02 12:35:36;;;;;;;0.20;0.10;;;4.70;95.00;;;;;;4845990;29;20181;-79
2021/12/02 12:38:25;;;;;;;0.40;0.10;;;4.80;95.00;;;;;;4864003;29;20050;-79
2021/12/02 12:41:01;;;;;;;0.40;0.10;;;4.90;94.90;;;;;;4868996;29;20125;-79
2021/12/02 12:43:38;;;;;;;0.10;0.10;;;4.90;94.80;;;;;;4829692;29;20065;-79
2021/12/02 12:46:17;;;;;;;0.15;0.03;;;4.80;94.80;;;;;;4841685;29;20287;-79
2021/12/02 12:48:47;;;;;;;0.00;0.00;;;4.80;94.80;;;;;;4852012;29;20049;-80
2021/12/02 12:51:19;;;;;;;0.20;0.00;;;4.80;94.90;;;;;;4829171;29;20418;-79
2021/12/02 12:53:50;;;;;;;0.00;0.00;;;4.80;95.00;;;;;;4846136;29;20057;-80
2021/12/02 12:56:29;;;;;;;0.30;0.10;;;4.80;95.00;;;;;;4851862;29;20054;-79
2021/12/02 12:59:04;;;;;;;0.50;0.08;;;4.80;94.80;;;;;;4846013;29;20048;-80
2021/12/02 13:01:32;;;;;;;0.65;0.10;;;4.70;94.80;;;;;;4859939;29;20691;-79
2021/12/02 13:04:23;;;;;;;0.22;0.10;;;4.60;94.80;;;;;;4827771;29;20069;-79
2021/12/02 13:07:13;;;;;;;0.20;0.10;;;4.60;94.80;;;;;;4828622;29;20053;-80
2021/12/02 13:09:52;;;;;;;0.20;0.10;;;4.60;94.90;;;;;;4829103;29;20186;-80
2021/12/02 13:12:55;;;;;;;1.40;0.20;;;4.50;94.90;;;;;;4847259;29;20116;-81
2021/12/02 13:15:25;;;;;;;0.52;0.20;;;4.60;94.90;;;;;;4833755;29;20575;-79
2021/12/02 13:18:01;;;;;;;0.73;0.10;;;4.50;94.90;;;;;;4865081;29;20077;-78
2021/12/02 13:20:42;;;;;;;1.08;0.10;;;4.50;94.80;;;;;;4843004;29;20532;-80
2021/12/02 13:23:12;;;;;;;0.17;0.10;;;4.50;94.90;;;;;;4856347;29;20124;-80
2021/12/02 13:25:55;;;;;;;0.20;0.10;;;4.40;94.90;;;;;;4834046;29;20058;-80
2021/12/02 13:28:30;;;;;;;0.35;0.20;;;4.50;94.90;;;;;;4837957;29;20068;-81
2021/12/02 13:31:04;;;;;;;0.65;0.13;;;4.40;94.90;;;;;;4824747;29;20054;-81
2021/12/02 13:33:40;;;;;;;0.30;0.10;;;4.40;94.90;;;;;;4840526;29;20060;-84
2021/12/02 13:36:12;;;;;;;0.95;0.10;;;4.40;94.90;;;;;;4831421;29;20152;-84
2021/12/02 13:38:41;;;;;;;0.20;0.10;;;4.40;94.90;;;;;;4840061;29;20570;-83
2021/12/02 13:41:16;;;;;;;0.88;0.20;;;4.40;95.00;;;;;;4841897;29;20061;-80